createdAt,value
2022-10-11T00:00:23.872Z,17.30
2022-10-11T00:03:14.832Z,17.35
2022-10-11T00:05:45.269Z,17.42
2022-10-11T00:08:16.015Z,17.42
2022-10-11T00:10:47.462Z,17.28
2022-10-11T00:13:21.668Z,16.82
2022-10-11T00:15:51.816Z,16.19
2022-10-11T00:18:22.667Z,15.66
2022-10-11T00:21:07.464Z,15.40
2022-10-11T00:23:38.941Z,15.72
2022-10-11T00:26:14.214Z,15.95
2022-10-11T00:28:45.054Z,16.05
2022-10-11T00:31:19.610Z,16.06
2022-10-11T00:33:50.558Z,16.15
2022-10-11T00:36:24.865Z,16.27
2022-10-11T00:38:56.190Z,16.41
2022-10-11T00:41:27.903Z,16.46
2022-10-11T00:44:12.443Z,16.41
2022-10-11T00:46:47.430Z,16.41
2022-10-11T00:49:35.365Z,16.44
2022-10-11T00:52:29.663Z,16.30
2022-10-11T00:55:08.147Z,16.24
2022-10-11T00:57:43.316Z,16.31
2022-10-11T01:00:16.622Z,16.34
2022-10-11T01:02:48.281Z,16.33
2022-10-11T01:05:30.147Z,16.26
2022-10-11T01:08:02.540Z,16.25
2022-10-11T01:10:34.188Z,16.27
2022-10-11T01:13:30.233Z,16.28
2022-10-11T01:16:16.945Z,16.29
2022-10-11T01:19:05.883Z,16.34
2022-10-11T01:21:44.224Z,16.37
2022-10-11T01:24:48.295Z,16.23
2022-10-11T01:27:32.377Z,16.03
2022-10-11T01:30:25.483Z,16.03
2022-10-11T01:33:41.296Z,15.93
2022-10-11T01:36:28.870Z,15.72
2022-10-11T01:39:11.728Z,15.62
2022-10-11T01:41:54.361Z,15.54
2022-10-11T01:44:30.249Z,15.84
2022-10-11T01:47:01.614Z,16.78
2022-10-11T01:49:34.946Z,17.36
2022-10-11T01:52:09.405Z,17.44
2022-10-11T01:55:09.673Z,16.64
2022-10-11T01:57:41.027Z,15.59
2022-10-11T02:00:29.572Z,14.91
2022-10-11T02:03:16.173Z,14.72
2022-10-11T02:06:01.761Z,15.57
2022-10-11T02:08:44.911Z,15.90
2022-10-11T02:11:16.029Z,16.18
2022-10-11T02:14:12.147Z,16.08
2022-10-11T02:16:53.348Z,15.92
2022-10-11T02:19:33.479Z,15.84
2022-10-11T02:22:13.027Z,15.80
2022-10-11T02:24:50.460Z,15.68
2022-10-11T02:27:31.823Z,15.54
2022-10-11T02:30:06.008Z,15.42
2022-10-11T02:32:45.062Z,15.38
2022-10-11T02:35:16.670Z,15.18
2022-10-11T02:37:52.569Z,14.93
2022-10-11T02:40:36.916Z,14.80
2022-10-11T02:43:52.700Z,14.79
2022-10-11T02:46:23.679Z,14.42
2022-10-11T02:49:00.592Z,14.13
2022-10-11T02:51:34.700Z,13.93
2022-10-11T02:54:05.047Z,13.78
2022-10-11T02:56:34.399Z,13.63
2022-10-11T02:59:06.629Z,13.50
2022-10-11T03:01:34.879Z,13.39
2022-10-11T03:04:03.672Z,13.28
2022-10-11T03:06:32.199Z,13.21
2022-10-11T03:09:00.286Z,13.19
2022-10-11T03:11:28.366Z,13.15
2022-10-11T03:13:56.372Z,13.11
2022-10-11T03:16:24.387Z,13.02
2022-10-11T03:18:52.362Z,12.93
2022-10-11T03:21:20.473Z,12.91
2022-10-11T03:23:48.643Z,12.88
2022-10-11T03:26:17.113Z,12.79
2022-10-11T03:28:45.419Z,12.70
2022-10-11T03:31:18.684Z,12.78
2022-10-11T03:33:46.705Z,12.79
2022-10-11T03:36:15.097Z,12.72
2022-10-11T03:38:43.117Z,12.70
2022-10-11T03:41:11.151Z,12.90
2022-10-11T03:43:39.248Z,13.17
2022-10-11T03:46:07.767Z,13.39
2022-10-11T03:48:36.415Z,13.53
2022-10-11T03:51:04.690Z,13.61
2022-10-11T03:53:32.775Z,13.65
2022-10-11T03:56:04.688Z,13.65
2022-10-11T03:58:36.488Z,13.66
2022-10-11T04:01:05.090Z,13.69
2022-10-11T04:03:33.646Z,13.71
2022-10-11T04:06:03.016Z,13.73
2022-10-11T04:08:31.487Z,13.69
2022-10-11T04:10:59.742Z,13.61
2022-10-11T04:13:28.466Z,13.58
2022-10-11T04:15:56.853Z,13.79
2022-10-11T04:18:24.935Z,14.09
2022-10-11T04:20:52.885Z,14.20
2022-10-11T04:23:20.852Z,14.31
2022-10-11T04:25:49.281Z,14.40
2022-10-11T04:28:18.924Z,14.49
2022-10-11T04:30:47.795Z,14.47
2022-10-11T04:33:17.352Z,14.51
2022-10-11T04:35:45.311Z,14.65
2022-10-11T04:38:13.329Z,15.02
2022-10-11T04:40:41.885Z,15.19
2022-10-11T04:43:10.111Z,15.43
2022-10-11T04:45:38.348Z,15.55
2022-10-11T04:48:06.839Z,15.60
2022-10-11T04:50:35.772Z,15.49
2022-10-11T04:53:12.597Z,15.49
2022-10-11T04:55:41.020Z,15.68
2022-10-11T04:58:09.217Z,15.91
2022-10-11T05:00:37.939Z,16.11
2022-10-11T05:03:06.177Z,16.43
2022-10-11T05:05:34.190Z,16.78
2022-10-11T05:08:02.293Z,16.89
2022-10-11T05:10:30.760Z,16.98
2022-10-11T05:12:58.804Z,16.71
2022-10-11T05:15:26.968Z,16.47
2022-10-11T05:17:55.348Z,16.22
2022-10-11T05:20:23.503Z,16.23
2022-10-11T05:22:51.822Z,16.20
2022-10-11T05:25:24.066Z,15.99
2022-10-11T05:27:52.131Z,15.84
2022-10-11T05:30:20.310Z,15.84
2022-10-11T05:32:48.422Z,15.76
2022-10-11T05:35:16.757Z,15.57
2022-10-11T05:37:45.072Z,15.70
2022-10-11T05:40:13.295Z,15.81
2022-10-11T05:42:41.492Z,15.95
2022-10-11T05:45:09.889Z,15.78
2022-10-11T05:47:37.940Z,15.58
2022-10-11T05:50:06.417Z,15.83
2022-10-11T05:52:34.679Z,15.96
2022-10-11T05:55:03.561Z,15.85
2022-10-11T05:57:31.844Z,15.60
2022-10-11T06:00:00.369Z,15.52
2022-10-11T06:02:28.996Z,15.56
2022-10-11T06:04:57.381Z,15.48
2022-10-11T06:07:25.727Z,15.55
2022-10-11T06:09:54.099Z,15.45
2022-10-11T06:12:22.214Z,15.37
2022-10-11T06:14:50.630Z,15.34
2022-10-11T06:17:18.888Z,15.53
2022-10-11T06:19:46.978Z,15.52
2022-10-11T06:22:15.098Z,15.62
2022-10-11T06:24:43.248Z,15.62
2022-10-11T06:27:12.764Z,15.76
2022-10-11T06:29:41.005Z,15.89
2022-10-11T06:32:09.313Z,15.76
2022-10-11T06:34:37.451Z,15.72
2022-10-11T06:37:09.006Z,15.66
2022-10-11T06:39:37.080Z,15.61
2022-10-11T06:42:05.251Z,15.55
2022-10-11T06:44:33.949Z,15.52
2022-10-11T06:47:02.129Z,15.34
2022-10-11T06:49:30.247Z,15.19
2022-10-11T06:51:58.370Z,15.05
2022-10-11T06:54:26.886Z,14.89
2022-10-11T06:56:55.079Z,14.92
2022-10-11T06:59:23.313Z,15.12
2022-10-11T07:01:51.645Z,15.21
2022-10-11T07:04:19.999Z,15.46
2022-10-11T07:06:48.509Z,15.60
2022-10-11T07:09:16.660Z,15.78
2022-10-11T07:11:46.356Z,16.12
2022-10-11T07:14:14.711Z,16.78
2022-10-11T07:16:42.962Z,17.26
2022-10-11T07:19:11.416Z,17.04
2022-10-11T07:21:39.627Z,16.40
2022-10-11T07:24:07.944Z,15.84
2022-10-11T07:26:38.551Z,16.18
2022-10-11T07:29:09.582Z,16.32
2022-10-11T07:31:40.444Z,16.50
2022-10-11T07:34:09.490Z,16.58
2022-10-11T07:36:37.854Z,16.67
2022-10-11T07:39:07.420Z,16.72
2022-10-11T07:41:38.883Z,16.98
2022-10-11T07:44:10.004Z,17.11
2022-10-11T07:46:40.199Z,16.64
2022-10-11T07:49:08.264Z,15.93
2022-10-11T07:51:36.474Z,15.47
2022-10-11T07:54:07.277Z,15.84
2022-10-11T07:56:37.637Z,16.48
2022-10-11T07:59:06.531Z,16.78
2022-10-11T08:01:34.688Z,16.29
2022-10-11T08:04:03.572Z,15.69
2022-10-11T08:06:32.843Z,15.29
2022-10-11T08:09:01.930Z,15.01
2022-10-11T08:11:33.028Z,15.31
2022-10-11T08:14:02.569Z,15.72
2022-10-11T08:16:31.110Z,15.84
2022-10-11T08:18:59.254Z,15.47
2022-10-11T08:21:27.414Z,15.18
2022-10-11T08:23:55.500Z,15.07
2022-10-11T08:26:23.889Z,15.60
2022-10-11T08:28:52.059Z,16.55
2022-10-11T08:31:20.257Z,16.58
2022-10-11T08:33:48.237Z,16.02
2022-10-11T08:36:16.507Z,15.61
2022-10-11T08:38:44.722Z,15.32
2022-10-11T08:41:24.888Z,15.11
2022-10-11T08:44:02.518Z,14.97
2022-10-11T08:46:34.812Z,14.88
2022-10-11T08:49:04.168Z,14.83
2022-10-11T08:51:47.896Z,14.83
2022-10-11T08:54:31.606Z,14.77
2022-10-11T08:57:01.457Z,14.72
2022-10-11T08:59:39.012Z,14.71
2022-10-11T09:02:26.342Z,14.67
2022-10-11T09:04:56.582Z,14.67
2022-10-11T09:07:36.432Z,14.71
2022-10-11T09:10:22.571Z,14.79
2022-10-11T09:13:02.505Z,14.86
2022-10-11T09:16:06.260Z,14.91
2022-10-11T09:18:43.630Z,14.92
2022-10-11T09:21:22.678Z,14.91
2022-10-11T09:24:09.333Z,14.93
2022-10-11T09:26:59.524Z,14.87
2022-10-11T09:29:45.713Z,14.86
2022-10-11T09:32:21.410Z,14.88
2022-10-11T09:35:00.025Z,14.90
2022-10-11T09:37:38.181Z,14.87
2022-10-11T09:40:43.448Z,14.92
2022-10-11T09:43:12.245Z,15.02
2022-10-11T09:45:49.302Z,15.04
2022-10-11T09:48:23.140Z,15.06
2022-10-11T09:50:52.425Z,15.14
2022-10-11T09:53:22.197Z,15.21
2022-10-11T09:56:02.783Z,15.23
2022-10-11T09:58:34.617Z,15.19
2022-10-11T10:01:12.112Z,15.19
2022-10-11T10:03:44.593Z,15.10
2022-10-11T10:06:27.580Z,15.04
2022-10-11T10:09:24.619Z,15.07
2022-10-11T10:11:54.882Z,15.19
2022-10-11T10:14:30.241Z,15.31
2022-10-11T10:17:05.881Z,15.44
2022-10-11T10:19:44.667Z,15.56
2022-10-11T10:22:31.289Z,15.62
2022-10-11T10:25:03.652Z,15.67
2022-10-11T10:27:34.610Z,15.70
2022-10-11T10:30:10.685Z,15.76
2022-10-11T10:33:11.334Z,15.71
2022-10-11T10:35:45.848Z,15.58
2022-10-11T10:39:07.959Z,15.49
2022-10-11T10:41:36.730Z,15.36
2022-10-11T10:44:05.309Z,15.32
2022-10-11T10:46:42.223Z,15.35
2022-10-11T10:49:52.576Z,15.41
2022-10-11T10:52:20.176Z,15.41
2022-10-11T10:55:04.366Z,15.33
2022-10-11T10:58:02.894Z,15.22
2022-10-11T11:00:44.267Z,15.09
2022-10-11T11:04:03.009Z,15.01
2022-10-11T11:06:42.956Z,14.92
2022-10-11T11:09:26.615Z,14.81
2022-10-11T11:12:20.188Z,14.82
2022-10-11T11:15:03.663Z,14.90
2022-10-11T11:18:04.069Z,14.96
2022-10-11T11:20:37.395Z,15.09
2022-10-11T11:23:40.473Z,15.24
2022-10-11T11:26:20.737Z,15.34
2022-10-11T11:29:25.696Z,15.32
2022-10-11T11:31:56.723Z,15.22
2022-10-11T11:34:40.080Z,15.13
2022-10-11T11:37:23.687Z,15.05
2022-10-11T11:39:57.708Z,14.99
2022-10-11T11:42:36.058Z,14.93
2022-10-11T11:45:15.374Z,14.82
2022-10-11T11:47:47.551Z,14.74
2022-10-11T11:50:23.439Z,14.73
2022-10-11T11:53:00.253Z,14.79
2022-10-11T11:55:36.686Z,14.89
2022-10-11T11:58:13.284Z,15.00
2022-10-11T12:01:06.886Z,15.15
2022-10-11T12:03:42.050Z,15.27
2022-10-11T12:06:16.051Z,15.34
2022-10-11T12:08:48.639Z,15.40
2022-10-11T12:11:22.655Z,15.45
2022-10-11T12:13:53.105Z,15.52
2022-10-11T12:16:23.094Z,15.59
2022-10-11T12:18:57.255Z,15.72
2022-10-11T12:21:33.195Z,15.79
2022-10-11T12:24:21.567Z,15.80
2022-10-11T12:26:54.643Z,15.87
2022-10-11T12:29:43.703Z,15.96
2022-10-11T12:32:35.357Z,16.02
2022-10-11T12:35:31.504Z,16.05
2022-10-11T12:38:18.524Z,16.09
2022-10-11T12:40:48.339Z,16.11
2022-10-11T12:43:16.574Z,16.13
2022-10-11T12:45:48.149Z,16.14
2022-10-11T12:48:52.656Z,16.13
2022-10-11T12:51:33.961Z,16.09
2022-10-11T12:54:37.256Z,16.08
2022-10-11T12:57:12.105Z,16.05
2022-10-11T12:59:46.542Z,16.01
2022-10-11T13:02:28.805Z,15.97
2022-10-11T13:05:21.186Z,15.94
2022-10-11T13:07:51.862Z,15.85
2022-10-11T13:10:33.382Z,15.72
2022-10-11T13:13:04.805Z,15.66
2022-10-11T13:15:34.547Z,15.64
2022-10-11T13:18:07.138Z,15.61
2022-10-11T13:20:40.297Z,15.56
2022-10-11T13:23:38.359Z,15.56
2022-10-11T13:26:09.616Z,15.58
2022-10-11T13:28:45.575Z,15.62
2022-10-11T13:31:14.213Z,15.72
2022-10-11T13:33:45.114Z,15.73
2022-10-11T13:36:20.768Z,15.74
2022-10-11T13:39:00.851Z,15.73
2022-10-11T13:41:30.966Z,15.73
2022-10-11T13:44:00.369Z,15.70
2022-10-11T13:46:31.461Z,15.68
2022-10-11T13:49:05.445Z,15.68
2022-10-11T13:51:38.071Z,15.71
2022-10-11T13:54:13.294Z,15.73
2022-10-11T13:56:48.195Z,15.73
2022-10-11T13:59:19.979Z,15.76
2022-10-11T14:01:49.692Z,15.78
2022-10-11T14:04:18.452Z,15.79
2022-10-11T14:06:59.745Z,15.79
2022-10-11T14:09:35.505Z,15.81
2022-10-11T14:12:32.268Z,15.81
2022-10-11T14:15:01.948Z,15.79
2022-10-11T14:17:44.319Z,15.79
2022-10-11T14:20:18.601Z,15.75
2022-10-11T14:22:49.463Z,15.72
2022-10-11T14:25:18.024Z,15.69
2022-10-11T14:27:47.096Z,15.68
2022-10-11T14:30:27.301Z,15.65
2022-10-11T14:32:59.658Z,15.63
2022-10-11T14:35:35.011Z,15.62
2022-10-11T14:38:03.495Z,15.57
2022-10-11T14:40:32.231Z,15.52
2022-10-11T14:43:00.550Z,15.51
2022-10-11T14:45:29.623Z,15.51
2022-10-11T14:47:57.936Z,15.49
2022-10-11T14:50:37.025Z,15.47
2022-10-11T14:53:06.706Z,15.46
2022-10-11T14:55:37.502Z,15.43
2022-10-11T14:58:07.244Z,15.40
2022-10-11T15:00:36.862Z,15.36
2022-10-11T15:03:09.862Z,15.32
2022-10-11T15:05:38.433Z,15.28
2022-10-11T15:08:07.723Z,15.24
2022-10-11T15:10:41.423Z,15.19
2022-10-11T15:13:10.103Z,15.13
2022-10-11T15:15:41.482Z,15.09
2022-10-11T15:18:13.557Z,15.03
2022-10-11T15:20:44.680Z,14.95
2022-10-11T15:23:13.277Z,14.88
2022-10-11T15:25:44.832Z,14.82
2022-10-11T15:28:26.080Z,14.75
2022-10-11T15:30:55.095Z,14.66
2022-10-11T15:33:25.184Z,14.57
2022-10-11T15:35:54.242Z,14.48
2022-10-11T15:38:25.239Z,14.39
2022-10-11T15:40:54.598Z,14.29
2022-10-11T15:43:24.893Z,14.19
2022-10-11T15:45:57.245Z,14.12
2022-10-11T15:48:27.763Z,14.04
2022-10-11T15:50:57.154Z,13.96
2022-10-11T15:53:30.310Z,13.90
2022-10-11T15:56:19.911Z,13.84
2022-10-11T15:58:48.215Z,13.78
2022-10-11T16:01:19.985Z,13.72
2022-10-11T16:03:49.807Z,13.65
2022-10-11T16:06:18.946Z,13.59
2022-10-11T16:08:48.061Z,13.53
2022-10-11T16:11:16.356Z,13.44
2022-10-11T16:13:45.480Z,13.35
2022-10-11T16:16:14.099Z,13.27
2022-10-11T16:18:42.236Z,13.19
2022-10-11T16:21:14.492Z,13.12
2022-10-11T16:23:43.633Z,13.05
2022-10-11T16:26:14.465Z,12.98
2022-10-11T16:28:43.395Z,12.91
2022-10-11T16:31:15.848Z,12.86
2022-10-11T16:33:48.364Z,12.78
2022-10-11T16:36:33.072Z,12.72
2022-10-11T16:39:06.777Z,12.64
2022-10-11T16:41:35.280Z,12.56
2022-10-11T16:44:04.173Z,12.48
2022-10-11T16:46:34.136Z,12.39
2022-10-11T16:49:03.116Z,12.28
2022-10-11T16:51:31.514Z,12.17
2022-10-11T16:54:01.045Z,12.20
2022-10-11T16:56:30.610Z,12.81
2022-10-11T16:58:59.375Z,13.57
2022-10-11T17:01:28.337Z,14.28
2022-10-11T17:03:58.306Z,14.67
2022-10-11T17:06:26.607Z,14.62
2022-10-11T17:08:55.262Z,14.17
2022-10-11T17:11:24.919Z,13.65
2022-10-11T17:13:54.588Z,13.23
2022-10-11T17:16:23.376Z,12.90
2022-10-11T17:18:52.150Z,12.65
2022-10-11T17:21:22.664Z,12.43
2022-10-11T17:23:53.322Z,12.23
2022-10-11T17:26:27.157Z,12.03
2022-10-11T17:28:59.934Z,11.95
2022-10-11T17:31:30.255Z,12.76
2022-10-11T17:34:00.614Z,13.58
2022-10-11T17:36:38.244Z,14.00
2022-10-11T17:39:19.327Z,14.70
2022-10-11T17:41:48.800Z,14.90
2022-10-11T17:44:18.667Z,14.30
2022-10-11T17:46:48.853Z,13.64
2022-10-11T17:49:17.439Z,13.08
2022-10-11T17:51:47.032Z,12.62
2022-10-11T17:54:16.899Z,12.24
2022-10-11T17:56:45.475Z,11.94
2022-10-11T17:59:21.625Z,11.82
2022-10-11T18:01:51.473Z,12.33
2022-10-11T18:04:22.009Z,12.82
2022-10-11T18:06:50.745Z,13.56
2022-10-11T18:09:21.171Z,14.38
2022-10-11T18:11:50.648Z,14.57
2022-10-11T18:14:19.515Z,13.99
2022-10-11T18:16:47.685Z,13.31
2022-10-11T18:19:16.626Z,12.80
2022-10-11T18:21:46.056Z,12.40
2022-10-11T18:24:16.744Z,12.07
2022-10-11T18:26:46.408Z,11.78
2022-10-11T18:29:15.693Z,11.74
2022-10-11T18:31:44.842Z,12.75
2022-10-11T18:34:15.009Z,13.92
2022-10-11T18:36:44.106Z,14.56
2022-10-11T18:39:15.677Z,14.03
2022-10-11T18:41:46.779Z,13.25
2022-10-11T18:44:18.351Z,12.63
2022-10-11T18:46:51.587Z,12.15
2022-10-11T18:49:21.734Z,11.77
2022-10-11T18:51:50.693Z,11.48
2022-10-11T18:54:21.504Z,11.51
2022-10-11T18:56:51.840Z,12.50
2022-10-11T18:59:22.141Z,13.26
2022-10-11T19:01:52.684Z,13.83
2022-10-11T19:04:21.493Z,14.18
2022-10-11T19:06:52.806Z,13.59
2022-10-11T19:09:26.334Z,12.86
2022-10-11T19:11:57.036Z,12.28
2022-10-11T19:14:28.822Z,11.84
2022-10-11T19:16:59.427Z,11.45
2022-10-11T19:19:30.107Z,11.11
2022-10-11T19:22:00.206Z,10.80
2022-10-11T19:24:31.564Z,10.79
2022-10-11T19:27:02.761Z,11.71
2022-10-11T19:29:32.770Z,12.59
2022-10-11T19:32:03.762Z,13.03
2022-10-11T19:34:33.355Z,13.37
2022-10-11T19:37:03.598Z,13.72
2022-10-11T19:39:32.522Z,13.14
2022-10-11T19:42:01.734Z,12.40
2022-10-11T19:44:35.795Z,11.83
2022-10-11T19:47:12.091Z,11.35
2022-10-11T19:49:40.499Z,11.18
2022-10-11T19:52:09.942Z,11.98
2022-10-11T19:54:38.597Z,12.89
2022-10-11T19:57:08.969Z,13.43
2022-10-11T19:59:37.730Z,13.40
2022-10-11T20:02:06.778Z,12.70
2022-10-11T20:04:52.995Z,11.97
2022-10-11T20:07:21.690Z,11.33
2022-10-11T20:09:50.080Z,10.89
2022-10-11T20:12:18.454Z,10.51
2022-10-11T20:14:46.933Z,10.31
2022-10-11T20:17:17.852Z,10.45
2022-10-11T20:19:46.177Z,10.46
2022-10-11T20:22:14.454Z,10.46
2022-10-11T20:24:42.616Z,10.61
2022-10-11T20:27:10.820Z,11.46
2022-10-11T20:29:39.000Z,12.25
2022-10-11T20:32:07.402Z,12.67
2022-10-11T20:34:39.551Z,13.01
2022-10-11T20:37:07.951Z,12.96
2022-10-11T20:39:36.146Z,12.22
2022-10-11T20:42:04.567Z,11.50
2022-10-11T20:44:33.074Z,10.92
2022-10-11T20:47:03.986Z,10.59
2022-10-11T20:49:32.681Z,11.06
2022-10-11T20:52:01.031Z,11.59
2022-10-11T20:54:30.869Z,11.71
2022-10-11T20:56:59.318Z,11.54
2022-10-11T20:59:27.827Z,11.54
2022-10-11T21:01:56.149Z,11.86
2022-10-11T21:04:24.633Z,12.17
2022-10-11T21:06:53.248Z,12.35
2022-10-11T21:09:22.001Z,12.51
2022-10-11T21:11:50.615Z,12.46
2022-10-11T21:14:19.298Z,11.86
2022-10-11T21:16:48.341Z,11.21
2022-10-11T21:19:17.887Z,10.69
2022-10-11T21:21:53.307Z,10.25
2022-10-11T21:24:23.773Z,9.86
2022-10-11T21:27:00.285Z,9.72
2022-10-11T21:29:29.113Z,10.01
2022-10-11T21:31:57.351Z,10.07
2022-10-11T21:34:25.431Z,10.10
2022-10-11T21:36:53.607Z,10.09
2022-10-11T21:39:21.929Z,10.10
2022-10-11T21:41:50.101Z,10.27
2022-10-11T21:44:18.361Z,10.45
2022-10-11T21:47:07.181Z,10.58
2022-10-11T21:49:35.134Z,10.55
2022-10-11T21:52:03.843Z,10.59
2022-10-11T21:54:32.007Z,10.67
2022-10-11T21:57:00.381Z,10.54
2022-10-11T21:59:28.550Z,10.41
2022-10-11T22:02:01.473Z,10.40
2022-10-11T22:04:30.159Z,10.57
2022-10-11T22:06:58.464Z,10.95
2022-10-11T22:09:28.427Z,11.44
2022-10-11T22:11:57.578Z,11.82
2022-10-11T22:14:25.703Z,12.01
2022-10-11T22:16:53.681Z,12.17
2022-10-11T22:19:22.183Z,12.10
2022-10-11T22:21:50.904Z,11.47
2022-10-11T22:24:19.013Z,10.81
2022-10-11T22:26:47.151Z,10.29
2022-10-11T22:29:15.172Z,9.86
2022-10-11T22:31:43.375Z,9.69
2022-10-11T22:34:11.546Z,9.91
2022-10-11T22:36:39.816Z,9.84
2022-10-11T22:39:08.402Z,9.83
2022-10-11T22:41:37.885Z,10.79
2022-10-11T22:44:06.312Z,11.88
2022-10-11T22:46:34.374Z,12.26
2022-10-11T22:49:03.007Z,12.60
2022-10-11T22:51:31.141Z,12.89
2022-10-11T22:53:59.173Z,12.18
2022-10-11T22:56:27.336Z,11.35
2022-10-11T22:58:55.601Z,10.71
2022-10-11T23:01:23.738Z,10.22
2022-10-11T23:03:52.097Z,9.84
2022-10-11T23:06:20.235Z,9.71
2022-10-11T23:08:48.410Z,10.16
2022-10-11T23:11:16.787Z,11.11
2022-10-11T23:13:45.176Z,11.52
2022-10-11T23:16:13.763Z,11.39
2022-10-11T23:18:42.174Z,11.17
2022-10-11T23:21:10.533Z,11.05
2022-10-11T23:23:39.904Z,11.25
2022-10-11T23:26:13.887Z,11.44
2022-10-11T23:28:43.047Z,11.39
2022-10-11T23:31:16.780Z,10.79
2022-10-11T23:33:45.883Z,10.12
2022-10-11T23:36:23.096Z,9.60
2022-10-11T23:38:56.743Z,9.17
2022-10-11T23:41:27.207Z,9.04
2022-10-11T23:43:55.677Z,10.08
2022-10-11T23:46:23.900Z,11.24
2022-10-11T23:48:52.423Z,11.98
2022-10-11T23:51:20.550Z,11.75
2022-10-11T23:53:48.608Z,10.92
2022-10-11T23:56:16.915Z,10.19
2022-10-11T23:58:45.026Z,9.65
